Flight Track Log - Related Links

Times and Time Zones

All times are in EST time to prevent confusion due to time zone crossing. See the EJA941 flight status page for this flight to view local times or setup timezone preferences in your user account.

Time Position Orientation Groundspeed Altitude Reporting Facility
EST Latitude Longitude Course Direction KTS MPH feet Rate Location/Type
Sun 02:55:48 PM 40.8333 -74.1000 237° Southwest 177 204 1,600  Level New York TRACON
Sun 02:56:48 PM 40.8000 -74.1667 237° Southwest 227 261 2,200 2,550 Climbing New York TRACON
Sun 02:57:48 PM 40.7833 -74.2333 252° West 205 236 6,700 3,667 Climbing New York TRACON
Sun 02:58:54 PM 40.8000 -74.3167 285° West 236 272 9,900 2,048 Climbing New York TRACON
Sun 02:59:54 PM 40.8167 -74.4333 281° West 323 372 11,000 1,939 Climbing New York TRACON
Sun 03:01:38 PM 40.8108 -74.6397 268° West 343 395 15,200 2,378 Climbing New York Center
Sun 03:02:38 PM 40.8092 -74.7464 269° West 343 395 17,500 2,350 Climbing New York Center
Sun 03:03:38 PM 40.8072 -74.8669 269° West 337 388 19,900 2,150 Climbing New York Center
Sun 03:04:38 PM 40.8050 -74.9928 269° West 337 388 21,800 1,950 Climbing New York Center
Sun 03:05:38 PM 40.8042 -75.1244 270° West 350 403 23,800 2,050 Climbing New York Center
Sun 03:06:38 PM 40.7722 -75.2594 253° West 379 436 25,900 2,000 Climbing New York Center
Sun 03:07:38 PM 40.7297 -75.3881 246° West 379 436 27,800 1,950 Climbing New York Center
Sun 03:08:38 PM 40.6828 -75.5217 245° Southwest 392 451 29,800 2,000 Climbing New York Center
Sun 03:09:38 PM 40.6375 -75.6581 246° West 404 465 31,800 2,000 Climbing New York Center
Sun 03:10:38 PM 40.5881 -75.7967 245° Southwest 415 478 33,800 2,050 Climbing New York Center
Sun 03:11:38 PM 40.5358 -75.9403 244° Southwest 426 490 35,900 2,050 Climbing New York Center
Sun 03:12:38 PM 40.4881 -76.0786 246° West 426 490 37,900 1,900 Climbing New York Center
Sun 03:13:38 PM 40.4400 -76.2169 246° West 426 490 39,700 1,050 Climbing New York Center
Sun 03:14:38 PM 40.3897 -76.3572 245° Southwest 431 496 40,000 150 Climbing New York Center
Sun 03:15:38 PM 40.3372 -76.5003 244° Southwest 431 496 40,000  Level New York Center
Sun 03:16:38 PM 40.2769 -76.6639 244° Southwest 442 509 40,000  Level New York Center
Sun 03:17:38 PM 40.2217 -76.8089 244° Southwest 442 509 40,000  Level New York Center
Sun 03:18:38 PM 40.2011 -76.9647 260° West 437 503 40,000  Level New York Center
Sun 03:19:38 PM 40.1986 -77.1275 269° West 444 511 40,000  Level New York Center
Sun 03:20:38 PM 40.1919 -77.2872 267° West 444 511 40,000  Level New York Center
Sun 03:21:38 PM 40.1897 -77.4419 269° West 439 505 40,000  Level New York Center
Sun 03:23:58 PM 40.1758 -77.8000 267° West 437 503 40,000  Level Cleveland Center
Sun 03:25:00 PM 40.1692 -77.9542 267° West 441 507 40,000  Level Cleveland Center
Sun 03:26:02 PM 40.1614 -78.1453 267° West 438 504 40,000  Level Cleveland Center
Sun 03:27:04 PM 40.1550 -78.3044 267° West 439 505 40,000  Level Cleveland Center
Sun 03:28:06 PM 40.1486 -78.4644 267° West 440 506 40,000  Level Cleveland Center
Sun 03:29:08 PM 40.1414 -78.6247 267° West 442 509 40,000  Level Cleveland Center
Sun 03:30:10 PM 40.1333 -78.7856 266° West 443 510 40,000  Level Cleveland Center
Sun 03:31:12 PM 40.1253 -78.9475 266° West 445 512 40,000  Level Cleveland Center
Sun 03:32:14 PM 40.1169 -79.1436 267° West 450 518 40,000  Level Cleveland Center
Sun 03:33:16 PM 40.1078 -79.3064 266° West 450 518 40,000  Level Cleveland Center
Sun 03:34:18 PM 40.0986 -79.4808 266° West 452 520 40,000  Level Cleveland Center
Sun 03:35:20 PM 40.0892 -79.6411 266° West 444 511 40,000  Level Cleveland Center
Sun 03:36:22 PM 40.0800 -79.8019 266° West 442 509 40,000  Level Cleveland Center
Sun 03:37:24 PM 40.0700 -79.9642 265° West 446 513 40,000  Level Cleveland Center
Sun 03:38:26 PM 40.0617 -80.1286 266° West 449 517 40,000  Level Cleveland Center
Sun 03:39:28 PM 40.0514 -80.2917 265° West 448 516 40,000  Level Cleveland Center
Sun 03:40:30 PM 40.0408 -80.4572 265° West 455 524 40,000  Level Cleveland Center
Sun 03:41:32 PM 40.0308 -80.6203 265° West 450 518 40,000  Level Cleveland Center
Sun 03:42:34 PM 40.0183 -80.8108 265° West 440 506 40,000  Level Cleveland Center
Sun 03:43:05 PM 40.0144 -80.8839 266° West 439 505 40,000  Level Indianapolis Center
Sun 03:44:06 PM 40.0133 -81.0478 270° West 445 512 40,000  Level Indianapolis Center
Sun 03:45:08 PM 40.0108 -81.2106 269° West 445 512 40,000  Level Indianapolis Center
Sun 03:46:10 PM 40.0083 -81.3714 269° West 441 507 40,000  Level Indianapolis Center
Sun 03:47:12 PM 40.0047 -81.5372 268° West 449 517 40,000  Level Indianapolis Center
Sun 03:48:14 PM 40.0011 -81.7003 268° West 447 514 40,000  Level Indianapolis Center
Sun 03:49:16 PM 39.9981 -81.8603 269° West 446 513 40,000  Level Indianapolis Center
Sun 03:50:18 PM 39.9931 -82.0567 268° West 452 520 40,000  Level Indianapolis Center
Sun 03:51:20 PM 39.9908 -82.2169 269° West 447 514 40,000  Level Indianapolis Center
Sun 03:52:22 PM 39.9856 -82.3753 268° West 441 507 40,000  Level Indianapolis Center
Sun 03:53:24 PM 39.9817 -82.5339 268° West 438 504 40,000  Level Indianapolis Center
Sun 03:54:26 PM 39.9767 -82.6911 268° West 437 503 40,000  Level Indianapolis Center
Sun 03:55:28 PM 39.9717 -82.8494 268° West 439 505 40,000  Level Indianapolis Center
Sun 03:56:29 PM 39.9658 -83.0417 268° West 444 511 40,000  Level Indianapolis Center
Sun 03:57:31 PM 39.9631 -83.1997 269° West 442 509 40,000  Level Indianapolis Center
Sun 03:58:33 PM 39.9586 -83.3561 268° West 439 505 40,000  Level Indianapolis Center
Sun 03:59:35 PM 39.9531 -83.5111 267° West 440 506 40,000  Level Indianapolis Center
Sun 04:00:37 PM 39.9450 -83.6972 267° West 440 506 40,000  Level Indianapolis Center
Sun 04:01:39 PM 39.9392 -83.8539 267° West 438 504 40,000  Level Indianapolis Center
Sun 04:02:41 PM 39.9336 -84.0108 267° West 436 502 40,000  Level Indianapolis Center
Sun 04:03:43 PM 39.9269 -84.1678 267° West 437 503 40,000  Level Indianapolis Center
Sun 04:04:45 PM 39.9200 -84.3247 267° West 436 502 40,000  Level Indianapolis Center
Sun 04:05:46 PM 39.9131 -84.4825 267° West 439 505 40,000  Level Indianapolis Center
Sun 04:06:48 PM 39.9042 -84.6736 267° West 440 506 40,000  Level Indianapolis Center
Sun 04:07:50 PM 39.8967 -84.8317 267° West 439 505 40,000  Level Indianapolis Center
Sun 04:08:52 PM 39.8897 -84.9903 267° West 439 505 40,000  Level Indianapolis Center
Sun 04:09:54 PM 39.8828 -85.1478 267° West 438 504 40,000  Level Indianapolis Center
Sun 04:10:56 PM 39.8744 -85.3050 266° West 438 504 40,000  Level Indianapolis Center
Sun 04:11:58 PM 39.8661 -85.4617 266° West 438 504 40,000  Level Indianapolis Center
Sun 04:13:00 PM 39.8553 -85.6494 266° West 436 502 40,000  Level Indianapolis Center
Sun 04:14:02 PM 39.8472 -85.8067 266° West 438 504 40,000  Level Indianapolis Center
Sun 04:15:04 PM 39.8389 -85.9628 266° West 436 502 40,000 -435 Level Indianapolis Center
Sun 04:16:06 PM 39.8297 -86.1169 266° West 433 498 39,100 -976 Descending Indianapolis Center
Sun 04:17:07 PM 39.8189 -86.2800 265° West 431 496 38,000 -1,073 Descending Indianapolis Center
Sun 04:18:09 PM 39.7969 -86.4447 260° West 433 498 36,900 -968 Descending Indianapolis Center
Sun 04:19:11 PM 39.7597 -86.5906 252° West 432 497 36,000 -435 Descending Indianapolis Center
Sun 04:20:13 PM 39.7214 -86.7453 252° West 450 518 36,000 -387 Level Indianapolis Center
Sun 04:21:15 PM 39.6836 -86.9000 252° West 451 519 35,200 -968 Descending Indianapolis Center
Sun 04:22:17 PM 39.6367 -87.0881 252° West 459 528 34,000 -581 Descending Indianapolis Center
Sun 04:23:19 PM 39.5969 -87.2422 252° West 454 522 34,000  Level Indianapolis Center
Sun 04:24:21 PM 39.5575 -87.3967 252° West 453 521 34,000  Level Indianapolis Center
Sun 04:25:23 PM 39.5181 -87.5533 252° West 458 527 34,000  Level Indianapolis Center
Sun 04:26:25 PM 39.4786 -87.7089 252° West 459 528 34,000 -1,016 Level Indianapolis Center
Sun 04:27:27 PM 39.4297 -87.8947 251° West 455 524 31,900 -2,129 Descending Indianapolis Center
Sun 04:28:29 PM 39.3900 -88.0475 251° West 453 521 29,600 -1,929 Descending Indianapolis Center
Sun 04:29:19 PM 39.3583 -88.1733 252° West 452 520 28,300 -1,409 Descending Kansas City Center
Sun 04:30:24 PM 39.3183 -88.3269 251° West 451 519 26,900 -1,323 Descending Kansas City Center
Sun 04:31:26 PM 39.2778 -88.4761 251° West 448 516 25,500 -1,317 Descending Kansas City Center
Sun 04:32:27 PM 39.2386 -88.6203 251° West 441 507 24,200 -1,180 Descending Kansas City Center
Sun 04:33:28 PM 39.2086 -88.7356 251° West 384 442 23,100 -1,171 Descending Kansas City Center
Sun 04:34:30 PM 39.1731 -88.8647 250° West 340 391 21,800 -1,104 Descending Kansas City Center
Sun 04:35:33 PM 39.1453 -88.9714 251° West 322 371 20,800 -968 Descending Kansas City Center
Sun 04:36:34 PM 39.1156 -89.0789 250° West 319 367 19,800 -968 Descending Kansas City Center
Sun 04:37:37 PM 39.0872 -89.1878 251° West 321 369 18,800 -1,056 Descending Kansas City Center
Sun 04:38:39 PM 39.0628 -89.2969 254° West 319 367 17,600 -984 Descending Kansas City Center
Sun 04:39:39 PM 39.0389 -89.4058 254° West 317 365 16,800 -1,016 Descending Kansas City Center
Sun 04:40:43 PM 39.0097 -89.5367 254° West 318 366 15,500 -945 Descending Kansas City Center
Sun 04:41:46 PM 38.9825 -89.6431 252° West 315 362 14,800 -1,258 Descending Kansas City Center
Sun 04:42:47 PM 38.9500 -89.7411 247° West 301 346 12,900 -1,820 Descending Kansas City Center
Sun 04:43:48 PM 38.9208 -89.8342 248° West 286 329 11,100 -1,680 Descending Kansas City Center
Sun 04:44:52 PM 38.8944 -89.9181 248° West 264 304 9,400 -1,476 Descending Kansas City Center
Sun 04:45:54 PM 38.8700 -89.9947 248° West 243 280 8,000 -689 Descending Kansas City Center
Sun 04:46:54 PM 38.8408 -90.0858 248° West 235 270 8,000  Level Kansas City Center
Sun 04:47:57 PM 38.8167 -90.1611 248° West 232 267 8,000 -532 Level Kansas City Center
Sun 04:48:58 PM 38.8328 -90.2369 285° West 238 274 6,900 -1,268 Descending Kansas City Center
Sun 04:50:00 PM 38.8667 -90.3086 301° West 238 274 5,400 -1,429 Descending Kansas City Center
Sun 04:51:04 PM 38.8819 -90.3839 285° West 226 260 3,900 -1,161 Descending Kansas City Center
Sun 04:52:04 PM 38.8631 -90.4500 250° West 194 223 3,000 -484 Descending Kansas City Center
Sun 04:53:08 PM 38.8303 -90.4547 186° South 145 167 2,900 -480 Descending Kansas City Center
Sun 04:54:09 PM 38.7981 -90.4375 157° South 136 157 2,000 -689 Descending Kansas City Center
Sun 04:55:10 PM 38.7756 -90.4097 136° Southeast 124 143 1,500 -581 Descending Kansas City Center
Sun 04:56:13 PM 38.7558 -90.3778 128° Southeast 118 136 800 -667 Descending Kansas City Center

Login

Don't have an account? Register now (free) for customized features, flight alerts, and more!